createdAt,value
2023-03-19T00:00:38.079Z,7.93
2023-03-19T00:03:04.676Z,8.65
2023-03-19T00:05:31.397Z,8.85
2023-03-19T00:07:58.061Z,11.43
2023-03-19T00:10:24.547Z,7.13
2023-03-19T00:12:51.084Z,6.30
2023-03-19T00:15:17.730Z,10.45
2023-03-19T00:17:44.423Z,11.32
2023-03-19T00:20:12.612Z,7.45
2023-03-19T00:22:40.042Z,7.88
2023-03-19T00:25:08.259Z,9.70
2023-03-19T00:27:35.582Z,6.53
2023-03-19T00:30:02.616Z,9.20
2023-03-19T00:32:30.071Z,10.32
2023-03-19T00:34:56.780Z,8.68
2023-03-19T00:37:23.410Z,6.65
2023-03-19T00:39:50.284Z,9.52
2023-03-19T00:42:16.895Z,6.97
2023-03-19T00:44:43.457Z,8.05
2023-03-19T00:47:10.036Z,7.70
2023-03-19T00:49:36.814Z,8.90
2023-03-19T00:52:03.440Z,8.57
2023-03-19T00:54:32.253Z,6.97
2023-03-19T00:56:59.214Z,7.85
2023-03-19T00:59:26.214Z,8.38
2023-03-19T01:01:52.797Z,9.95
2023-03-19T01:04:19.461Z,8.25
2023-03-19T01:06:46.173Z,11.90
2023-03-19T01:09:12.846Z,8.43
2023-03-19T01:11:39.456Z,9.65
2023-03-19T01:14:07.555Z,7.10
2023-03-19T01:16:34.748Z,10.93
2023-03-19T01:19:02.205Z,10.98
2023-03-19T01:21:31.012Z,8.25
2023-03-19T01:23:58.445Z,9.20
2023-03-19T01:26:27.325Z,9.10
2023-03-19T01:28:58.668Z,9.55
2023-03-19T01:31:26.334Z,8.55
2023-03-19T01:34:13.007Z,7.35
2023-03-19T01:36:49.612Z,6.75
2023-03-19T01:39:21.485Z,7.45
2023-03-19T01:41:49.127Z,9.18
2023-03-19T01:44:34.737Z,12.40
2023-03-19T01:47:34.636Z,9.57
2023-03-19T01:50:30.149Z,7.93
2023-03-19T01:53:17.779Z,7.82
2023-03-19T01:55:59.579Z,6.88
2023-03-19T01:58:36.271Z,9.23
2023-03-19T02:01:34.205Z,7.05
2023-03-19T02:04:00.920Z,8.35
2023-03-19T02:06:30.888Z,6.95
2023-03-19T02:08:59.220Z,7.18
2023-03-19T02:11:26.397Z,10.63
2023-03-19T02:13:53.127Z,8.57
2023-03-19T02:16:19.901Z,8.13
2023-03-19T02:18:47.846Z,5.57
2023-03-19T02:21:20.052Z,6.82
2023-03-19T02:24:05.124Z,7.32
2023-03-19T02:26:45.262Z,7.72
2023-03-19T02:29:11.995Z,6.80
2023-03-19T02:31:38.924Z,8.90
2023-03-19T02:34:27.554Z,8.38
2023-03-19T02:36:58.846Z,5.53
2023-03-19T02:39:34.477Z,7.80
2023-03-19T02:42:02.134Z,10.27
2023-03-19T02:44:30.638Z,8.88
2023-03-19T02:46:57.331Z,6.93
2023-03-19T02:49:24.801Z,6.63
2023-03-19T02:51:51.757Z,5.53
2023-03-19T02:54:18.312Z,5.65
2023-03-19T02:56:44.873Z,8.68
2023-03-19T02:59:11.623Z,6.45
2023-03-19T03:01:38.335Z,9.45
2023-03-19T03:04:05.336Z,6.35
2023-03-19T03:06:32.404Z,6.93
2023-03-19T03:09:01.691Z,7.68
2023-03-19T03:11:28.252Z,7.05
2023-03-19T03:13:54.808Z,8.23
2023-03-19T03:16:21.710Z,5.97
2023-03-19T03:18:48.590Z,5.43
2023-03-19T03:21:15.375Z,6.82
2023-03-19T03:23:42.054Z,5.88
2023-03-19T03:26:08.603Z,5.18
2023-03-19T03:28:35.490Z,6.15
2023-03-19T03:31:02.741Z,8.73
2023-03-19T03:33:29.963Z,5.03
2023-03-19T03:35:56.667Z,7.95
2023-03-19T03:38:23.606Z,7.22
2023-03-19T03:40:52.501Z,5.35
2023-03-19T03:43:21.734Z,5.50
2023-03-19T03:45:48.794Z,5.18
2023-03-19T03:48:16.770Z,8.48
2023-03-19T03:50:43.906Z,9.45
2023-03-19T03:53:15.949Z,6.68
2023-03-19T03:55:42.858Z,5.20
2023-03-19T03:58:09.974Z,5.22
2023-03-19T04:00:36.936Z,6.43
2023-03-19T04:03:03.748Z,3.65
2023-03-19T04:05:30.985Z,6.05
2023-03-19T04:07:58.493Z,8.10
2023-03-19T04:10:25.877Z,6.43
2023-03-19T04:12:52.519Z,4.93
2023-03-19T04:15:19.419Z,4.85
2023-03-19T04:17:47.566Z,4.80
2023-03-19T04:20:18.059Z,4.63
2023-03-19T04:22:45.294Z,5.38
2023-03-19T04:25:11.920Z,7.75
2023-03-19T04:27:39.774Z,6.43
2023-03-19T04:30:09.412Z,5.18
2023-03-19T04:32:37.471Z,5.18
2023-03-19T04:35:04.481Z,4.20
2023-03-19T04:37:31.281Z,5.55
2023-03-19T04:39:58.063Z,4.50
2023-03-19T04:42:24.856Z,3.78
2023-03-19T04:45:08.579Z,6.28
2023-03-19T04:47:35.564Z,4.13
2023-03-19T04:50:02.782Z,5.63
2023-03-19T04:52:33.297Z,7.72
2023-03-19T04:55:00.169Z,5.53
2023-03-19T04:57:27.064Z,9.65
2023-03-19T04:59:55.948Z,4.82
2023-03-19T05:02:23.445Z,5.88
2023-03-19T05:04:50.580Z,7.75
2023-03-19T05:07:17.172Z,5.15
2023-03-19T05:09:46.210Z,6.40
2023-03-19T05:12:13.752Z,6.05
2023-03-19T05:17:22.542Z,5.13
2023-03-19T05:20:04.960Z,5.65
2023-03-19T05:22:34.235Z,5.75
2023-03-19T05:25:00.881Z,4.78
2023-03-19T05:27:29.554Z,4.78
2023-03-19T05:30:06.922Z,5.43
2023-03-19T05:32:53.058Z,6.10
2023-03-19T05:35:40.497Z,4.75
2023-03-19T05:38:15.511Z,3.88
2023-03-19T05:40:45.594Z,4.82
2023-03-19T05:43:22.375Z,5.40
2023-03-19T05:45:54.330Z,6.82
2023-03-19T05:48:25.927Z,5.65
2023-03-19T05:50:52.848Z,4.90
2023-03-19T05:53:22.685Z,5.18
2023-03-19T05:56:09.826Z,3.88
2023-03-19T05:58:51.780Z,5.63
2023-03-19T06:01:22.951Z,5.50
2023-03-19T06:03:50.161Z,4.97
2023-03-19T06:06:17.329Z,5.90
2023-03-19T06:08:45.623Z,9.35
2023-03-19T06:11:16.939Z,6.80
2023-03-19T06:13:48.819Z,5.05
2023-03-19T06:16:16.861Z,6.10
2023-03-19T06:18:50.916Z,9.15
2023-03-19T06:21:17.879Z,5.20
2023-03-19T06:23:44.526Z,7.00
2023-03-19T06:26:14.506Z,23.65
2023-03-19T06:28:47.007Z,19.42
2023-03-19T06:31:14.664Z,7.63
2023-03-19T06:33:57.955Z,9.80
2023-03-19T06:36:30.905Z,8.85
2023-03-19T06:38:57.732Z,6.07
2023-03-19T06:41:25.141Z,5.95
2023-03-19T06:43:53.436Z,10.00
2023-03-19T06:46:20.019Z,5.53
2023-03-19T06:48:46.658Z,13.65
2023-03-19T06:51:13.216Z,12.88
2023-03-19T06:53:39.984Z,8.18
2023-03-19T06:56:06.644Z,6.45
2023-03-19T06:58:33.168Z,21.67
2023-03-19T07:00:59.884Z,9.05
2023-03-19T07:03:26.405Z,12.73
2023-03-19T07:05:53.470Z,13.07
2023-03-19T07:08:20.130Z,19.67
2023-03-19T07:10:46.753Z,7.57
2023-03-19T07:13:13.276Z,6.15
2023-03-19T07:15:40.169Z,6.75
2023-03-19T07:18:06.783Z,14.75
2023-03-19T07:20:33.593Z,12.55
2023-03-19T07:23:00.473Z,10.68
2023-03-19T07:25:26.970Z,8.68
2023-03-19T07:27:55.911Z,8.45
2023-03-19T07:30:22.679Z,12.88
2023-03-19T07:32:49.163Z,16.27
2023-03-19T07:35:15.937Z,9.93
2023-03-19T07:37:42.826Z,11.10
2023-03-19T07:40:10.136Z,81.05
2023-03-19T07:42:36.741Z,91.00
2023-03-19T07:45:04.829Z,36.60
2023-03-19T07:47:31.641Z,24.38
2023-03-19T07:49:58.238Z,13.30
2023-03-19T07:52:26.001Z,8.52
2023-03-19T07:54:52.956Z,13.82
2023-03-19T07:57:19.843Z,9.60
2023-03-19T07:59:46.558Z,8.93
2023-03-19T08:02:13.988Z,12.63
2023-03-19T08:04:41.408Z,13.02
2023-03-19T08:07:10.719Z,9.77
2023-03-19T08:09:37.559Z,8.02
2023-03-19T08:12:04.680Z,5.82
2023-03-19T08:14:31.318Z,6.95
2023-03-19T08:16:57.935Z,7.18
2023-03-19T08:19:24.479Z,7.93
2023-03-19T08:21:51.182Z,6.88
2023-03-19T08:24:18.748Z,7.75
2023-03-19T08:26:46.331Z,7.47
2023-03-19T08:29:12.877Z,7.70
2023-03-19T08:31:39.485Z,4.97
2023-03-19T08:34:07.993Z,7.40
2023-03-19T08:36:34.510Z,6.57
2023-03-19T08:39:01.251Z,6.75
2023-03-19T08:41:27.875Z,7.57
2023-03-19T08:43:54.443Z,8.75
2023-03-19T08:46:21.372Z,5.80
2023-03-19T08:48:48.018Z,6.00
2023-03-19T08:51:14.689Z,6.15
2023-03-19T08:53:41.385Z,6.13
2023-03-19T08:56:08.109Z,6.40
2023-03-19T08:58:34.898Z,5.57
2023-03-19T09:01:07.149Z,8.15
2023-03-19T09:03:33.745Z,4.28
2023-03-19T09:06:01.946Z,6.30
2023-03-19T09:08:29.504Z,3.45
2023-03-19T09:10:56.597Z,4.00
2023-03-19T09:13:24.356Z,3.95
2023-03-19T09:15:51.964Z,4.32
2023-03-19T09:18:20.525Z,8.80
2023-03-19T09:20:48.209Z,5.85
2023-03-19T09:23:14.743Z,6.13
2023-03-19T09:25:41.401Z,4.70
2023-03-19T09:28:08.175Z,5.30
2023-03-19T09:30:34.807Z,4.63
2023-03-19T09:33:01.545Z,5.03
2023-03-19T09:35:31.300Z,3.67
2023-03-19T09:37:59.123Z,5.03
2023-03-19T09:40:39.358Z,5.20
2023-03-19T09:43:33.043Z,6.53
2023-03-19T09:46:02.048Z,4.25
2023-03-19T09:49:04.532Z,6.40
2023-03-19T09:51:43.309Z,5.35
2023-03-19T09:54:33.634Z,8.00
2023-03-19T09:57:00.341Z,5.55
2023-03-19T09:59:28.546Z,5.47
2023-03-19T10:02:24.176Z,5.63
2023-03-19T10:05:08.733Z,4.20
2023-03-19T10:07:47.757Z,3.55
2023-03-19T10:10:37.659Z,4.90
2023-03-19T10:13:41.382Z,5.53
2023-03-19T10:16:16.935Z,3.30
2023-03-19T10:18:49.841Z,3.58
2023-03-19T10:21:22.575Z,6.38
2023-03-19T10:23:57.706Z,4.75
2023-03-19T10:26:35.457Z,4.45
2023-03-19T10:29:23.578Z,4.60
2023-03-19T10:32:06.139Z,4.90
2023-03-19T10:34:38.002Z,5.53
2023-03-19T10:37:22.614Z,3.95
2023-03-19T10:39:51.828Z,4.57
2023-03-19T10:42:27.663Z,6.05
2023-03-19T10:45:01.980Z,8.60
2023-03-19T10:47:28.583Z,5.25
2023-03-19T10:49:57.293Z,4.63
2023-03-19T10:52:36.935Z,6.20
2023-03-19T10:55:13.844Z,5.05
2023-03-19T10:57:43.411Z,5.60
2023-03-19T11:00:18.471Z,4.95
2023-03-19T11:02:54.144Z,4.60
2023-03-19T11:05:32.084Z,5.80
2023-03-19T11:08:01.920Z,6.22
2023-03-19T11:10:31.586Z,5.40
2023-03-19T11:13:00.777Z,4.72
2023-03-19T11:15:36.930Z,3.80
2023-03-19T11:18:16.966Z,5.85
2023-03-19T11:20:50.408Z,7.13
2023-03-19T11:23:18.043Z,13.38
2023-03-19T11:25:53.617Z,7.30
2023-03-19T11:28:26.821Z,6.80
2023-03-19T11:31:18.240Z,4.43
2023-03-19T11:34:00.250Z,6.10
2023-03-19T11:36:48.191Z,3.95
2023-03-19T11:39:17.692Z,5.45
2023-03-19T11:41:49.121Z,3.53
2023-03-19T11:44:22.435Z,4.93
2023-03-19T11:47:26.223Z,4.95
2023-03-19T11:50:18.321Z,4.40
2023-03-19T11:53:14.375Z,2.80
2023-03-19T11:55:48.471Z,4.20
2023-03-19T11:58:50.489Z,4.50
2023-03-19T12:01:20.498Z,9.27
2023-03-19T12:03:50.153Z,5.72
2023-03-19T12:06:34.419Z,4.78
2023-03-19T12:09:07.856Z,5.50
2023-03-19T12:11:48.341Z,4.93
2023-03-19T12:14:52.747Z,5.70
2023-03-19T12:17:46.398Z,6.65
2023-03-19T12:20:32.556Z,7.40
2023-03-19T12:23:34.723Z,5.65
2023-03-19T12:26:04.907Z,5.30
2023-03-19T12:28:51.616Z,5.35
2023-03-19T12:31:21.281Z,4.65
2023-03-19T12:34:16.674Z,4.85
2023-03-19T12:37:12.455Z,3.75
2023-03-19T12:39:46.530Z,4.95
2023-03-19T12:42:17.548Z,5.07
2023-03-19T12:44:51.238Z,6.30
2023-03-19T12:47:26.646Z,4.80
2023-03-19T12:50:01.392Z,6.20
2023-03-19T12:52:42.234Z,6.75
2023-03-19T12:55:21.076Z,5.78
2023-03-19T12:57:53.787Z,6.80
2023-03-19T13:00:37.787Z,5.22
2023-03-19T13:03:07.616Z,5.13
2023-03-19T13:05:47.822Z,6.05
2023-03-19T13:08:23.539Z,4.57
2023-03-19T13:10:50.285Z,3.67
2023-03-19T13:13:27.595Z,4.00
2023-03-19T13:16:00.132Z,3.67
2023-03-19T13:18:48.475Z,2.95
2023-03-19T13:21:25.059Z,4.35
2023-03-19T13:24:14.376Z,2.47
2023-03-19T13:26:41.092Z,3.20
2023-03-19T13:29:07.665Z,3.38
2023-03-19T13:31:36.581Z,4.25
2023-03-19T13:34:20.340Z,3.08
2023-03-19T13:37:12.772Z,2.28
2023-03-19T13:39:40.134Z,3.90
2023-03-19T13:42:27.735Z,3.05
2023-03-19T13:45:03.164Z,2.13
2023-03-19T13:47:32.212Z,4.43
2023-03-19T13:50:48.973Z,2.38
2023-03-19T13:53:31.191Z,2.67
2023-03-19T13:55:59.559Z,3.20
2023-03-19T13:58:47.791Z,4.63
2023-03-19T14:01:26.327Z,2.05
2023-03-19T14:04:14.750Z,8.93
2023-03-19T14:06:47.765Z,4.32
2023-03-19T14:09:38.538Z,2.50
2023-03-19T14:12:25.052Z,4.10
2023-03-19T14:14:57.087Z,2.08
2023-03-19T14:17:45.116Z,3.83
2023-03-19T14:20:12.758Z,2.60
2023-03-19T14:22:58.724Z,4.03
2023-03-19T14:25:27.856Z,2.53
2023-03-19T14:27:59.217Z,2.25
2023-03-19T14:30:38.880Z,3.28
2023-03-19T14:33:08.434Z,6.00
2023-03-19T14:35:42.782Z,4.05
2023-03-19T14:38:20.914Z,2.47
2023-03-19T14:40:51.752Z,2.17
2023-03-19T14:43:28.456Z,3.47
2023-03-19T14:46:03.405Z,4.28
2023-03-19T14:49:12.093Z,4.35
2023-03-19T14:52:04.830Z,3.25
2023-03-19T14:54:42.129Z,3.33
2023-03-19T14:57:17.088Z,2.72
2023-03-19T14:59:44.042Z,2.67
2023-03-19T15:02:38.754Z,3.55
2023-03-19T15:05:34.094Z,8.55
2023-03-19T15:08:04.322Z,10.98
2023-03-19T15:10:58.765Z,15.80
2023-03-19T15:13:55.598Z,9.45
2023-03-19T15:16:31.338Z,4.00
2023-03-19T15:18:58.667Z,5.50
2023-03-19T15:21:25.652Z,4.90
2023-03-19T15:23:52.477Z,6.28
2023-03-19T15:26:31.141Z,5.60
2023-03-19T15:28:59.541Z,4.07
2023-03-19T15:31:51.601Z,3.85
2023-03-19T15:34:28.895Z,4.95
2023-03-19T15:37:04.571Z,3.75
2023-03-19T15:39:36.643Z,7.65
2023-03-19T15:42:04.988Z,17.50
2023-03-19T15:44:39.671Z,5.30
2023-03-19T15:47:11.490Z,3.60
2023-03-19T15:49:46.827Z,2.25
2023-03-19T15:52:16.916Z,1.00
2023-03-19T15:54:43.891Z,1.05
2023-03-19T15:57:14.117Z,1.80
2023-03-19T15:59:42.042Z,0.90
2023-03-19T16:02:22.584Z,1.05
2023-03-19T16:05:18.159Z,1.27
2023-03-19T16:07:50.805Z,0.80
2023-03-19T16:10:39.603Z,1.05
2023-03-19T16:13:31.747Z,1.95
2023-03-19T16:16:06.810Z,2.28
2023-03-19T16:19:02.897Z,1.33
2023-03-19T16:21:38.758Z,0.95
2023-03-19T16:24:08.336Z,1.60
2023-03-19T16:26:39.776Z,0.70
2023-03-19T16:29:27.488Z,0.60
2023-03-19T16:32:02.392Z,1.23
2023-03-19T16:34:46.364Z,2.00
2023-03-19T16:37:37.911Z,1.05
2023-03-19T16:40:43.681Z,0.93
2023-03-19T16:43:22.088Z,2.28
2023-03-19T16:46:03.586Z,1.23
2023-03-19T16:48:30.233Z,1.98
2023-03-19T16:50:57.364Z,2.13
2023-03-19T16:53:27.015Z,1.52
2023-03-19T16:55:55.889Z,3.17
2023-03-19T16:58:36.964Z,12.93
2023-03-19T17:01:30.446Z,4.28
2023-03-19T17:03:57.134Z,5.43
2023-03-19T17:06:23.771Z,10.30
2023-03-19T17:08:50.445Z,11.23
2023-03-19T17:11:35.999Z,3.28
2023-03-19T17:14:03.351Z,3.15
2023-03-19T17:16:30.331Z,7.20
2023-03-19T17:18:57.198Z,8.77
2023-03-19T17:21:28.649Z,5.30
2023-03-19T17:23:55.742Z,5.25
2023-03-19T17:26:27.723Z,15.20
2023-03-19T17:28:56.242Z,9.55
2023-03-19T17:31:33.364Z,4.22
2023-03-19T17:34:16.208Z,9.15
2023-03-19T17:36:46.298Z,5.43
2023-03-19T17:39:12.973Z,7.03
2023-03-19T17:41:40.040Z,9.75
2023-03-19T17:44:06.969Z,10.60
2023-03-19T17:46:54.562Z,6.63
2023-03-19T17:49:24.110Z,4.90
2023-03-19T17:51:51.449Z,4.47
2023-03-19T17:54:18.404Z,12.75
2023-03-19T17:56:44.919Z,5.53
2023-03-19T17:59:11.987Z,7.15
2023-03-19T18:01:43.038Z,10.73
2023-03-19T18:04:14.265Z,7.13
2023-03-19T18:06:45.296Z,5.40
2023-03-19T18:09:19.980Z,7.63
2023-03-19T18:11:46.643Z,7.05
2023-03-19T18:14:13.290Z,3.80
2023-03-19T18:16:40.247Z,6.07
2023-03-19T18:19:18.468Z,5.85
2023-03-19T18:21:45.027Z,6.00
2023-03-19T18:24:12.542Z,7.50
2023-03-19T18:26:39.073Z,3.55
2023-03-19T18:29:05.618Z,3.30
2023-03-19T18:31:32.278Z,6.60
2023-03-19T18:34:02.778Z,7.25
2023-03-19T18:36:31.835Z,7.57
2023-03-19T18:38:59.453Z,11.57
2023-03-19T18:41:29.018Z,6.25
2023-03-19T18:44:05.958Z,4.57
2023-03-19T18:46:34.726Z,2.95
2023-03-19T18:49:11.385Z,12.95
2023-03-19T18:51:41.595Z,4.57
2023-03-19T18:54:14.795Z,28.23
2023-03-19T18:56:42.559Z,30.75
2023-03-19T18:59:30.886Z,41.88
2023-03-19T19:02:09.720Z,9.57
2023-03-19T19:04:36.490Z,10.45
2023-03-19T19:07:03.096Z,14.25
2023-03-19T19:09:29.700Z,17.15
2023-03-19T19:11:58.596Z,42.80
2023-03-19T19:14:25.283Z,6.88
2023-03-19T19:16:53.464Z,14.52
2023-03-19T19:19:23.213Z,14.23
2023-03-19T19:21:51.024Z,8.77
2023-03-19T19:24:17.810Z,6.13
2023-03-19T19:26:45.827Z,9.50
2023-03-19T19:29:23.636Z,7.20
2023-03-19T19:31:50.740Z,8.80
2023-03-19T19:34:17.634Z,10.23
2023-03-19T19:36:44.211Z,7.47
2023-03-19T19:39:11.434Z,6.95
2023-03-19T19:41:39.841Z,6.63
2023-03-19T19:44:06.950Z,6.60
2023-03-19T19:46:33.677Z,7.30
2023-03-19T19:49:00.330Z,7.72
2023-03-19T19:51:29.352Z,8.43
2023-03-19T19:53:56.198Z,5.30
2023-03-19T19:56:25.673Z,16.75
2023-03-19T19:58:54.838Z,10.00
2023-03-19T20:01:24.851Z,10.57
2023-03-19T20:03:52.466Z,12.15
2023-03-19T20:06:19.736Z,7.07
2023-03-19T20:08:49.346Z,8.15
2023-03-19T20:11:22.511Z,7.88
2023-03-19T20:13:52.523Z,9.63
2023-03-19T20:16:20.756Z,8.85
2023-03-19T20:18:47.769Z,9.43
2023-03-19T20:21:15.798Z,6.70
2023-03-19T20:23:44.415Z,11.35
2023-03-19T20:26:16.551Z,7.82
2023-03-19T20:28:44.680Z,5.28
2023-03-19T20:31:40.993Z,5.78
2023-03-19T20:34:22.483Z,3.50
2023-03-19T20:36:55.558Z,3.25
2023-03-19T20:39:22.381Z,3.08
2023-03-19T20:41:49.704Z,3.25
2023-03-19T20:44:22.209Z,5.43
2023-03-19T20:46:48.813Z,5.85
2023-03-19T20:49:15.504Z,6.43
2023-03-19T20:51:42.061Z,3.20
2023-03-19T20:54:08.664Z,4.47
2023-03-19T20:56:38.634Z,5.40
2023-03-19T20:59:05.714Z,9.15
2023-03-19T21:01:32.339Z,8.68
2023-03-19T21:03:58.907Z,8.10
2023-03-19T21:06:25.487Z,5.38
2023-03-19T21:08:57.125Z,7.38
2023-03-19T21:11:33.619Z,8.88
2023-03-19T21:14:00.108Z,5.05
2023-03-19T21:16:29.119Z,7.15
2023-03-19T21:18:55.651Z,8.68
2023-03-19T21:21:35.287Z,7.90
2023-03-19T21:24:06.731Z,3.53
2023-03-19T21:26:37.485Z,4.30
2023-03-19T21:29:08.206Z,4.93
2023-03-19T21:31:34.884Z,5.75
2023-03-19T21:34:01.580Z,7.75
2023-03-19T21:36:28.992Z,6.57
2023-03-19T21:38:55.661Z,5.28
2023-03-19T21:41:26.072Z,6.05
2023-03-19T21:43:56.260Z,5.10
2023-03-19T21:46:28.368Z,4.53
2023-03-19T21:48:56.869Z,6.38
2023-03-19T21:51:25.089Z,6.72
2023-03-19T21:53:52.031Z,5.85
2023-03-19T21:56:24.586Z,5.45
2023-03-19T21:58:52.407Z,5.18
2023-03-19T22:01:22.454Z,5.97
2023-03-19T22:03:50.171Z,5.45
2023-03-19T22:06:17.129Z,5.43
2023-03-19T22:08:48.236Z,3.88
2023-03-19T22:11:24.481Z,5.95
2023-03-19T22:13:51.229Z,4.15
2023-03-19T22:16:25.154Z,4.68
2023-03-19T22:18:52.396Z,7.45
2023-03-19T22:21:21.194Z,4.75
2023-03-19T22:23:48.247Z,8.00
2023-03-19T22:26:42.926Z,7.45
2023-03-19T22:29:22.795Z,7.25
2023-03-19T22:31:51.406Z,8.63
2023-03-19T22:34:20.098Z,6.80
2023-03-19T22:36:46.661Z,8.15
2023-03-19T22:39:13.703Z,7.70
2023-03-19T22:41:45.411Z,10.20
2023-03-19T22:44:25.539Z,6.07
2023-03-19T22:46:53.916Z,6.60
2023-03-19T22:49:20.476Z,8.05
2023-03-19T22:51:47.348Z,8.18
2023-03-19T22:54:14.029Z,8.63
2023-03-19T22:56:40.606Z,5.82
2023-03-19T22:59:07.313Z,7.55
2023-03-19T23:01:45.171Z,10.45
2023-03-19T23:04:18.074Z,7.55
2023-03-19T23:06:44.990Z,8.45
2023-03-19T23:09:21.614Z,7.93
2023-03-19T23:11:48.523Z,11.18
2023-03-19T23:14:28.402Z,10.73
2023-03-19T23:19:28.136Z,9.00
2023-03-19T23:21:54.955Z,9.85
2023-03-19T23:24:22.094Z,10.10
2023-03-19T23:26:50.867Z,11.10
2023-03-19T23:29:22.372Z,9.23
2023-03-19T23:31:51.299Z,6.97
2023-03-19T23:34:17.982Z,11.13
2023-03-19T23:36:44.962Z,9.75
2023-03-19T23:39:11.617Z,12.10
2023-03-19T23:41:45.598Z,9.82
2023-03-19T23:46:41.579Z,9.23
2023-03-19T23:49:17.395Z,10.40
2023-03-19T23:51:44.021Z,10.82
2023-03-19T23:54:28.425Z,11.07
2023-03-19T23:56:58.323Z,9.43
2023-03-19T23:59:27.074Z,10.70
